Time;durP1;ratioP1;P1;durP2;ratioP2;P2;SDS_P1;SDS_P2;PMS_P1;PMS_P2;Temp;Humidity;BMP_temperature;BMP_pressure;BME280_temperature;BME280_humidity;BME280_pressure;Samples;Min_cycle;Max_cycle;Signal;HPM_P1;HPM_P2
2024/03/09 00:00:33;;;;;;;13.85;6.47;;;;;;;;;;6090542;23;20018;-87
2024/03/09 00:03:01;;;;;;;;;;;;;;;;;;6089237;23;20037;-86
2024/03/09 00:05:35;;;;;;;14.02;6.65;;;;;;;;;;6088661;23;19917;-85
2024/03/09 00:08:03;;;;;;;13.00;6.75;;;;;;;;;;6087749;23;20022;-85
2024/03/09 00:10:38;;;;;;;13.77;7.43;;;;;;;;;;6089161;23;20189;-85
2024/03/09 00:13:09;;;;;;;17.83;7.70;;;;;;;;;;6089265;23;20275;-84
2024/03/09 00:15:37;;;;;;;15.65;6.97;;;;;;;;;;6090088;23;20097;-85
2024/03/09 00:18:11;;;;;;;15.15;7.60;;;;;;;;;;6086861;23;20098;-84
2024/03/09 00:20:39;;;;;;;24.55;8.18;;;;;;;;;;6089167;23;20042;-85
2024/03/09 00:23:09;;;;;;;18.23;6.93;;;;;;;;;;6089728;23;20034;-85
2024/03/09 00:25:43;;;;;;;19.80;8.15;;;;;;;;;;6089145;23;20741;-86
2024/03/09 00:28:12;;;;;;;19.58;7.47;;;;;;;;;;6089989;23;20082;-85
2024/03/09 00:30:46;;;;;;;18.00;7.45;;;;;;;;;;6090018;23;20033;-86
2024/03/09 00:33:15;;;;;;;14.80;7.10;;;;;;;;;;6089047;23;20068;-85
2024/03/09 00:35:43;;;;;;;19.75;7.85;;;;;;;;;;6087562;23;20487;-85
2024/03/09 00:38:30;;;;;;;17.77;8.00;;;;;;;;;;6088282;23;20073;-85
2024/03/09 00:41:04;;;;;;;15.35;7.32;;;;;;;;;;6036535;23;20022;-85
2024/03/09 00:43:43;;;;;;;19.40;7.70;;;;;;;;;;6059537;23;20026;-85
2024/03/09 00:46:11;;;;;;;17.25;8.20;;;;;;;;;;6060710;23;20402;-85
2024/03/09 00:48:45;;;;;;;15.48;7.88;;;;;;;;;;6038419;23;20352;-86
2024/03/09 00:51:12;;;;;;;12.57;6.50;;;;;;;;;;6037545;23;20094;-85
2024/03/09 00:53:40;;;;;;;;;;;;;;;;;;6063095;23;20031;-85
2024/03/09 00:56:13;;;;;;;14.00;7.10;;;;;;;;;;6061616;23;19928;-85
2024/03/09 00:58:40;;;;;;;19.65;8.07;;;;;;;;;;6036998;23;20030;-85
2024/03/09 01:01:14;;;;;;;18.58;8.40;;;;;;;;;;6062341;23;20023;-84
2024/03/09 01:03:42;;;;;;;15.82;7.78;;;;;;;;;;6060143;23;20037;-85
2024/03/09 01:06:11;;;;;;;16.33;7.60;;;;;;;;;;6059465;23;20046;-85
2024/03/09 01:08:45;;;;;;;20.70;7.63;;;;;;;;;;6032249;23;20050;-85
2024/03/09 01:11:12;;;;;;;18.25;7.82;;;;;;;;;;6056685;23;20027;-85
2024/03/09 01:13:46;;;;;;;16.17;7.05;;;;;;;;;;6059341;23;20027;-85
2024/03/09 01:16:13;;;;;;;17.10;7.78;;;;;;;;;;6060299;23;20023;-85
2024/03/09 01:18:42;;;;;;;17.58;7.47;;;;;;;;;;6060765;23;20575;-85
2024/03/09 01:21:16;;;;;;;16.75;7.35;;;;;;;;;;6061070;23;20094;-86
2024/03/09 01:23:44;;;;;;;14.98;7.75;;;;;;;;;;6034430;23;20082;-85
2024/03/09 01:26:13;;;;;;;16.20;7.72;;;;;;;;;;6060308;23;20018;-85
2024/03/09 01:28:47;;;;;;;15.70;7.57;;;;;;;;;;6059153;23;20408;-87
2024/03/09 01:31:16;;;;;;;15.35;7.55;;;;;;;;;;6033199;23;20046;-85
2024/03/09 01:33:50;;;;;;;17.30;7.60;;;;;;;;;;6060251;23;20485;-86
2024/03/09 01:36:27;;;;;;;16.88;7.75;;;;;;;;;;6034879;23;20107;-84
2024/03/09 01:39:08;;;;;;;22.23;8.10;;;;;;;;;;6069393;23;20030;-85
2024/03/09 01:41:42;;;;;;;16.50;7.15;;;;;;;;;;6088336;23;20027;-85
2024/03/09 01:44:17;;;;;;;15.93;7.45;;;;;;;;;;6088896;23;20030;-84
2024/03/09 01:46:46;;;;;;;15.57;7.78;;;;;;;;;;6088860;23;20046;-85
2024/03/09 01:49:14;;;;;;;21.23;8.73;;;;;;;;;;6089031;23;20030;-85
2024/03/09 01:51:48;;;;;;;20.17;7.60;;;;;;;;;;6090626;23;20022;-85
2024/03/09 01:54:23;;;;;;;17.10;7.65;;;;;;;;;;6088737;23;20093;-84
2024/03/09 01:56:57;;;;;;;19.00;8.07;;;;;;;;;;6088936;23;20022;-86
2024/03/09 01:59:27;;;;;;;20.15;7.38;;;;;;;;;;6089257;23;20030;-84
2024/03/09 02:01:57;;;;;;;18.75;7.72;;;;;;;;;;6090023;23;20034;-85
2024/03/09 02:04:34;;;;;;;20.63;7.95;;;;;;;;;;6087268;23;20265;-88
2024/03/09 02:07:02;;;;;;;20.23;8.07;;;;;;;;;;6088919;23;20019;-87
2024/03/09 02:09:39;;;;;;;21.25;8.13;;;;;;;;;;6089935;23;20062;-85
2024/03/09 02:12:07;;;;;;;18.23;7.75;;;;;;;;;;6092263;23;20087;-87
2024/03/09 02:14:43;;;;;;;17.90;8.23;;;;;;;;;;6091076;23;20397;-88
2024/03/09 02:17:11;;;;;;;18.60;7.80;;;;;;;;;;6091262;23;20033;-84
2024/03/09 02:19:40;;;;;;;15.00;7.35;;;;;;;;;;6090435;23;20089;-85
2024/03/09 02:22:16;;;;;;;19.63;7.78;;;;;;;;;;6091677;23;20026;-85
2024/03/09 02:24:46;;;;;;;18.42;7.45;;;;;;;;;;6088401;23;20033;-85
2024/03/09 02:27:20;;;;;;;17.80;8.10;;;;;;;;;;6091594;23;20026;-84
2024/03/09 02:29:48;;;;;;;21.20;7.93;;;;;;;;;;6088586;23;20022;-88
2024/03/09 02:32:15;;;;;;;14.15;7.72;;;;;;;;;;6090583;23;20026;-88
2024/03/09 02:34:49;;;;;;;18.55;7.07;;;;;;;;;;6090128;23;20054;-84
2024/03/09 02:37:20;;;;;;;18.77;8.88;;;;;;;;;;6089928;23;20089;-84
2024/03/09 02:40:03;;;;;;;16.93;7.63;;;;;;;;;;6087311;23;20049;-87
2024/03/09 02:42:32;;;;;;;17.45;7.60;;;;;;;;;;6090343;23;20025;-88
2024/03/09 02:45:07;;;;;;;22.42;7.70;;;;;;;;;;6091347;23;20086;-88
2024/03/09 02:47:34;;;;;;;25.17;8.05;;;;;;;;;;6090883;23;20018;-88
2024/03/09 02:50:04;;;;;;;20.88;8.13;;;;;;;;;;6089314;23;20506;-87
2024/03/09 02:52:38;;;;;;;22.52;8.23;;;;;;;;;;6090203;23;20356;-88
2024/03/09 02:55:05;;;;;;;;;;;;;;;;;;6090993;23;20211;-88
2024/03/09 02:57:40;;;;;;;19.00;6.95;;;;;;;;;;6091577;23;19917;-87
2024/03/09 03:00:08;;;;;;;19.95;7.80;;;;;;;;;;6089619;23;20357;-87
2024/03/09 03:05:28;;;;;;;15.38;6.90;;;;;;;;;;6089695;23;20452;-88
2024/03/09 03:07:55;;;;;;;13.35;6.78;;;;;;;;;;6088756;23;20464;-87
2024/03/09 03:10:29;;;;;;;15.82;7.32;;;;;;;;;;6089510;23;20029;-87
2024/03/09 03:12:57;;;;;;;18.10;7.50;;;;;;;;;;6090217;23;20030;-88
2024/03/09 03:15:31;;;;;;;17.83;7.57;;;;;;;;;;6090574;23;20026;-87
2024/03/09 03:17:58;;;;;;;17.67;6.43;;;;;;;;;;6090027;23;20026;-87
2024/03/09 03:20:27;;;;;;;;;;;;;;;;;;6091150;23;20026;-88
2024/03/09 03:23:05;;;;;;;15.52;6.60;;;;;;;;;;6090520;23;19968;-87
2024/03/09 03:25:34;;;;;;;15.05;6.50;;;;;;;;;;6089930;23;20519;-87
2024/03/09 03:28:08;;;;;;;18.17;7.30;;;;;;;;;;6091538;23;20057;-87
2024/03/09 03:30:36;;;;;;;18.15;7.25;;;;;;;;;;6089089;23;20030;-87
2024/03/09 03:33:05;;;;;;;17.23;7.70;;;;;;;;;;6088576;23;20520;-87
2024/03/09 03:35:39;;;;;;;14.43;7.50;;;;;;;;;;6090155;23;20053;-87
2024/03/09 03:38:07;;;;;;;16.88;7.35;;;;;;;;;;6089153;23;20030;-88
2024/03/09 03:40:47;;;;;;;20.13;7.78;;;;;;;;;;6086987;23;20030;-87
2024/03/09 03:43:14;;;;;;;18.65;8.00;;;;;;;;;;6091700;23;20029;-87
2024/03/09 03:45:48;;;;;;;22.77;7.63;;;;;;;;;;6089059;23;20415;-87
2024/03/09 03:48:22;;;;;;;18.25;7.53;;;;;;;;;;6090789;23;20468;-87
2024/03/09 03:50:49;;;;;;;16.80;7.60;;;;;;;;;;6090601;23;20018;-87
2024/03/09 03:53:16;;;;;;;22.83;7.88;;;;;;;;;;6089840;23;20026;-87
2024/03/09 03:55:51;;;;;;;17.45;7.72;;;;;;;;;;6089751;23;20022;-88
2024/03/09 03:58:18;;;;;;;18.73;8.38;;;;;;;;;;6091436;23;20030;-88
2024/03/09 04:00:54;;;;;;;22.15;8.25;;;;;;;;;;6090059;23;20026;-87
2024/03/09 04:03:22;;;;;;;21.88;9.30;;;;;;;;;;6089090;23;20053;-87
2024/03/09 04:05:56;;;;;;;19.27;8.18;;;;;;;;;;6088571;23;20037;-87
2024/03/09 04:08:23;;;;;;;20.77;8.85;;;;;;;;;;6090569;23;20022;-88
2024/03/09 04:10:51;;;;;;;23.05;8.70;;;;;;;;;;6090332;23;20281;-87
2024/03/09 04:13:25;;;;;;;22.05;8.65;;;;;;;;;;6089550;23;20030;-87
2024/03/09 04:15:53;;;;;;;21.63;8.98;;;;;;;;;;6089498;23;20030;-87
2024/03/09 04:18:29;;;;;;;24.33;8.77;;;;;;;;;;6089561;23;20031;-88
2024/03/09 04:20:57;;;;;;;22.52;8.00;;;;;;;;;;6088341;23;20065;-88
2024/03/09 04:23:24;;;;;;;22.73;8.90;;;;;;;;;;6090203;23;20026;-86
2024/03/09 04:25:58;;;;;;;24.80;9.68;;;;;;;;;;6089229;23;20041;-87
2024/03/09 04:28:27;;;;;;;;;;;;;;;;;;6090420;23;20026;-87
2024/03/09 04:31:01;;;;;;;17.58;8.75;;;;;;;;;;6089487;23;19928;-87
2024/03/09 04:33:28;;;;;;;23.27;10.45;;;;;;;;;;6091302;23;20042;-87
2024/03/09 04:36:06;;;;;;;20.10;9.57;;;;;;;;;;6091497;23;20023;-87
2024/03/09 04:38:34;;;;;;;23.48;9.80;;;;;;;;;;6089719;23;20338;-87
2024/03/09 04:41:15;;;;;;;26.23;9.40;;;;;;;;;;6089605;23;20022;-87
2024/03/09 04:43:42;;;;;;;19.75;10.90;;;;;;;;;;6089954;23;20022;-86
2024/03/09 04:46:16;;;;;;;27.13;10.77;;;;;;;;;;6090318;23;20352;-87
2024/03/09 04:48:43;;;;;;;23.65;10.98;;;;;;;;;;6089169;23;20060;-87
2024/03/09 04:51:12;;;;;;;19.35;10.63;;;;;;;;;;6089130;23;20030;-87
2024/03/09 04:53:46;;;;;;;24.25;11.38;;;;;;;;;;6089097;23;20026;-87
2024/03/09 04:56:14;;;;;;;23.02;9.93;;;;;;;;;;6088692;23;20326;-87
2024/03/09 04:58:48;;;;;;;23.88;10.90;;;;;;;;;;6089031;23;20420;-86
2024/03/09 05:01:16;;;;;;;28.15;10.20;;;;;;;;;;6089447;23;20393;-86
2024/03/09 05:03:50;;;;;;;18.65;9.02;;;;;;;;;;6089684;23;20453;-86
2024/03/09 05:06:17;;;;;;;20.33;9.18;;;;;;;;;;6087020;23;20064;-87
2024/03/09 05:08:46;;;;;;;24.27;11.40;;;;;;;;;;6088631;23;20023;-86
2024/03/09 05:11:19;;;;;;;27.05;11.27;;;;;;;;;;6089062;23;20026;-86
2024/03/09 05:13:46;;;;;;;26.25;11.65;;;;;;;;;;6088845;23;20049;-87
2024/03/09 05:16:20;;;;;;;20.02;9.85;;;;;;;;;;6091184;23;20019;-87
2024/03/09 05:18:47;;;;;;;14.57;6.18;;;;;;;;;;6089829;23;20030;-87
2024/03/09 05:21:22;;;;;;;27.90;11.65;;;;;;;;;;6088260;23;20109;-87
2024/03/09 05:23:50;;;;;;;21.55;11.10;;;;;;;;;;6090345;23;20022;-87
2024/03/09 05:26:18;;;;;;;25.05;10.98;;;;;;;;;;6089602;23;20097;-86
2024/03/09 05:28:56;;;;;;;25.35;12.68;;;;;;;;;;6088968;23;20074;-88
2024/03/09 05:31:26;;;;;;;24.70;11.23;;;;;;;;;;6089740;23;20038;-87
2024/03/09 05:34:00;;;;;;;31.67;12.38;;;;;;;;;;6090272;23;20069;-87
2024/03/09 05:36:28;;;;;;;15.43;8.27;;;;;;;;;;6088374;23;20022;-87
2024/03/09 05:39:15;;;;;;;22.55;12.02;;;;;;;;;;6089629;23;20026;-86
2024/03/09 05:41:42;;;;;;;22.35;10.30;;;;;;;;;;6087340;23;20081;-87
2024/03/09 05:44:16;;;;;;;22.88;10.88;;;;;;;;;;6089728;23;20539;-87
2024/03/09 05:46:43;;;;;;;;;;;;;;;;;;6093292;23;20097;-87
2024/03/09 05:49:18;;;;;;;27.70;11.85;;;;;;;;;;6092953;23;19991;-87
2024/03/09 05:51:47;;;;;;;17.40;7.65;;;;;;;;;;6090026;23;20405;-88
2024/03/09 05:54:15;;;;;;;19.60;8.70;;;;;;;;;;6092364;23;20027;-87
2024/03/09 05:56:51;;;;;;;23.70;10.13;;;;;;;;;;6088846;23;20030;-87
2024/03/09 05:59:19;;;;;;;22.45;11.48;;;;;;;;;;6091269;23;20502;-87
2024/03/09 06:01:53;;;;;;;25.45;11.05;;;;;;;;;;6092043;23;20074;-87
2024/03/09 06:04:21;;;;;;;27.60;12.88;;;;;;;;;;6092957;23;20029;-87
2024/03/09 06:06:48;;;;;;;29.33;13.10;;;;;;;;;;6090432;23;20030;-85
2024/03/09 06:09:23;;;;;;;27.90;12.98;;;;;;;;;;6091614;23;20492;-87
2024/03/09 06:11:50;;;;;;;;;;;;;;;;;;6092136;23;20026;-87
2024/03/09 06:14:26;;;;;;;23.55;10.23;;;;;;;;;;6091399;23;19932;-87
2024/03/09 06:16:53;;;;;;;25.40;12.90;;;;;;;;;;6092175;23;20022;-88
2024/03/09 06:19:20;;;;;;;19.80;11.15;;;;;;;;;;6090944;23;20026;-87
2024/03/09 06:21:54;;;;;;;15.75;8.15;;;;;;;;;;6090285;23;20030;-87
2024/03/09 06:24:22;;;;;;;17.85;8.77;;;;;;;;;;6091635;23;20028;-86
2024/03/09 06:26:56;;;;;;;25.45;10.45;;;;;;;;;;6092240;23;20037;-87
2024/03/09 06:29:23;;;;;;;18.10;8.65;;;;;;;;;;6092189;23;20027;-88
2024/03/09 06:31:57;;;;;;;15.60;6.07;;;;;;;;;;6090974;23;20085;-87
2024/03/09 06:34:25;;;;;;;23.35;11.10;;;;;;;;;;6092374;23;20480;-87
2024/03/09 06:36:55;;;;;;;22.80;11.10;;;;;;;;;;6091267;23;20511;-88
2024/03/09 06:39:43;;;;;;;28.20;12.90;;;;;;;;;;6091005;23;20085;-87
2024/03/09 06:42:21;;;;;;;29.05;12.65;;;;;;;;;;6088704;23;20476;-87
2024/03/09 06:44:55;;;;;;;;;;;;;;;;;;6090139;23;20022;-86
2024/03/09 06:47:22;;;;;;;29.35;12.10;;;;;;;;;;6091294;23;19928;-87
2024/03/09 06:49:56;;;;;;;20.15;9.18;;;;;;;;;;6091424;23;20089;-88
2024/03/09 06:52:23;;;;;;;24.38;10.35;;;;;;;;;;6092985;23;20025;-87
2024/03/09 06:54:53;;;;;;;22.85;10.82;;;;;;;;;;6090097;23;20086;-87
2024/03/09 06:57:27;;;;;;;23.75;11.57;;;;;;;;;;6089887;23;20026;-87
2024/03/09 06:59:54;;;;;;;22.67;11.20;;;;;;;;;;6091424;23;20026;-88
2024/03/09 07:02:28;;;;;;;19.50;9.52;;;;;;;;;;6090092;23;20033;-87
2024/03/09 07:04:56;;;;;;;14.68;7.35;;;;;;;;;;6090679;23;20551;-87
2024/03/09 07:07:23;;;;;;;15.68;8.70;;;;;;;;;;6091482;23;20027;-89
2024/03/09 07:09:58;;;;;;;11.07;5.82;;;;;;;;;;6091376;23;20027;-87
2024/03/09 07:12:26;;;;;;;10.75;5.60;;;;;;;;;;6090664;23;20582;-87
2024/03/09 07:15:01;;;;;;;11.38;6.70;;;;;;;;;;6091435;23;20026;-87
2024/03/09 07:17:28;;;;;;;9.52;5.82;;;;;;;;;;6091078;23;20484;-87
2024/03/09 07:19:55;;;;;;;11.55;6.78;;;;;;;;;;6090754;23;20539;-87
2024/03/09 07:22:29;;;;;;;10.90;5.35;;;;;;;;;;6090638;23;20081;-87
2024/03/09 07:24:56;;;;;;;11.35;5.55;;;;;;;;;;6089814;23;20360;-88
2024/03/09 07:27:23;;;;;;;8.60;5.57;;;;;;;;;;6088480;23;20111;-88
2024/03/09 07:29:57;;;;;;;7.97;4.60;;;;;;;;;;6090369;23;20520;-88
2024/03/09 07:32:25;;;;;;;10.35;5.82;;;;;;;;;;6090676;23;20025;-87
2024/03/09 07:34:58;;;;;;;7.55;5.18;;;;;;;;;;6091249;23;20458;-88
2024/03/09 07:37:26;;;;;;;;;;;;;;;;;;6090578;23;20407;-86
2024/03/09 07:39:54;;;;;;;10.15;5.45;;;;;;;;;;6089952;23;20259;-88
2024/03/09 07:42:35;;;;;;;7.57;4.80;;;;;;;;;;6090045;23;20480;-88
2024/03/09 07:45:06;;;;;;;10.68;5.00;;;;;;;;;;6087762;23;20440;-88
2024/03/09 07:47:43;;;;;;;7.97;4.40;;;;;;;;;;6090716;23;20018;-87
2024/03/09 07:50:18;;;;;;;8.07;4.30;;;;;;;;;;6089036;23;20026;-87
2024/03/09 07:52:49;;;;;;;6.20;4.25;;;;;;;;;;6091648;23;20022;-87
2024/03/09 07:55:17;;;;;;;6.15;3.72;;;;;;;;;;6090021;23;20101;-87
2024/03/09 07:57:54;;;;;;;7.30;3.78;;;;;;;;;;6090255;23;20543;-87
2024/03/09 08:00:40;;;;;;;6.05;3.20;;;;;;;;;;6090712;23;20041;-86
2024/03/09 08:03:13;;;;;;;5.97;3.70;;;;;;;;;;6091028;23;20026;-87
2024/03/09 08:05:48;;;;;;;5.93;3.80;;;;;;;;;;6089750;23;20449;-86
2024/03/09 08:08:17;;;;;;;4.50;3.17;;;;;;;;;;6089900;23;20018;-87
2024/03/09 08:10:54;;;;;;;6.40;2.63;;;;;;;;;;6089795;23;20019;-87
2024/03/09 08:13:25;;;;;;;4.72;2.97;;;;;;;;;;6088240;23;20045;-88
2024/03/09 08:16:05;;;;;;;2.97;2.20;;;;;;;;;;6088380;23;20018;-87
2024/03/09 08:18:32;;;;;;;4.15;2.45;;;;;;;;;;6090849;23;20397;-87
2024/03/09 08:21:07;;;;;;;3.08;1.70;;;;;;;;;;6091163;23;20360;-90
2024/03/09 08:23:34;;;;;;;5.63;2.83;;;;;;;;;;6089723;23;20345;-88
2024/03/09 08:26:06;;;;;;;3.38;2.40;;;;;;;;;;6090175;23;20088;-89
2024/03/09 08:28:42;;;;;;;3.45;2.35;;;;;;;;;;6090806;23;20374;-89
2024/03/09 08:31:09;;;;;;;3.63;2.60;;;;;;;;;;6088320;23;20041;-87
2024/03/09 08:33:43;;;;;;;3.38;2.72;;;;;;;;;;6087040;23;20472;-86
2024/03/09 08:36:10;;;;;;;4.97;2.67;;;;;;;;;;6089916;23;20033;-88
2024/03/09 08:38:39;;;;;;;;;;;;;;;;;;6089699;23;20018;-86
2024/03/09 08:41:22;;;;;;;3.22;2.08;;;;;;;;;;6087135;23;19921;-87
2024/03/09 08:43:50;;;;;;;3.38;2.45;;;;;;;;;;6089493;23;20083;-86
2024/03/09 08:46:26;;;;;;;4.25;2.33;;;;;;;;;;6090390;23;20105;-86
2024/03/09 08:48:53;;;;;;;3.10;2.15;;;;;;;;;;6088759;23;20046;-87
2024/03/09 08:51:20;;;;;;;4.13;2.03;;;;;;;;;;6088049;23;20085;-86
2024/03/09 08:53:54;;;;;;;4.20;2.17;;;;;;;;;;6087199;23;20468;-86
2024/03/09 08:56:21;;;;;;;3.95;2.10;;;;;;;;;;6089657;23;20077;-87
2024/03/09 08:58:49;;;;;;;2.78;2.10;;;;;;;;;;6090717;23;20413;-87
2024/03/09 09:01:22;;;;;;;4.93;2.05;;;;;;;;;;6089957;23;20022;-85
2024/03/09 09:03:49;;;;;;;3.10;2.35;;;;;;;;;;6088368;23;20421;-85
2024/03/09 09:06:23;;;;;;;4.32;2.28;;;;;;;;;;6088325;23;20030;-85
2024/03/09 09:08:51;;;;;;;2.85;1.95;;;;;;;;;;6087495;23;20030;-86
2024/03/09 09:11:18;;;;;;;2.95;2.03;;;;;;;;;;6085913;23;20216;-85
2024/03/09 09:13:52;;;;;;;2.58;2.03;;;;;;;;;;6090115;23;20029;-85
2024/03/09 09:16:20;;;;;;;4.70;2.20;;;;;;;;;;6089725;23;20360;-85
2024/03/09 09:18:47;;;;;;;2.65;1.80;;;;;;;;;;6090443;23;20413;-85
2024/03/09 09:21:21;;;;;;;4.40;1.92;;;;;;;;;;6089932;23;20026;-85
2024/03/09 09:23:48;;;;;;;3.95;2.22;;;;;;;;;;6089658;23;20042;-85
2024/03/09 09:26:22;;;;;;;5.50;2.17;;;;;;;;;;6090319;23;20037;-85
2024/03/09 09:28:49;;;;;;;2.83;2.10;;;;;;;;;;6091976;23;20046;-85
2024/03/09 09:31:16;;;;;;;3.20;2.17;;;;;;;;;;6087603;23;20041;-85
2024/03/09 09:33:51;;;;;;;2.42;1.90;;;;;;;;;;6087908;23;20460;-85
2024/03/09 09:36:19;;;;;;;4.18;2.13;;;;;;;;;;6087318;23;20022;-85
2024/03/09 09:38:46;;;;;;;2.30;1.90;;;;;;;;;;6091052;23;20078;-85
2024/03/09 09:41:28;;;;;;;2.65;1.92;;;;;;;;;;6090351;23;20276;-85
2024/03/09 09:43:59;;;;;;;2.85;2.03;;;;;;;;;;6092305;23;20028;-86
2024/03/09 09:46:34;;;;;;;2.42;1.95;;;;;;;;;;6091812;23;20029;-85
2024/03/09 09:49:01;;;;;;;7.55;2.08;;;;;;;;;;6089653;23;20081;-86
2024/03/09 09:51:30;;;;;;;3.58;1.88;;;;;;;;;;6088115;23;20030;-86
2024/03/09 09:54:07;;;;;;;3.45;1.90;;;;;;;;;;6089814;23;20085;-84
2024/03/09 09:56:35;;;;;;;2.75;2.17;;;;;;;;;;6091162;23;20026;-86
2024/03/09 09:59:02;;;;;;;3.15;2.00;;;;;;;;;;6089934;23;20090;-86
2024/03/09 10:01:36;;;;;;;2.83;2.08;;;;;;;;;;6090655;23;20041;-86
2024/03/09 10:04:04;;;;;;;3.55;2.08;;;;;;;;;;6091185;23;20018;-86
2024/03/09 10:06:37;;;;;;;4.07;2.03;;;;;;;;;;6089559;23;20097;-87
2024/03/09 10:09:04;;;;;;;3.35;2.40;;;;;;;;;;6095877;23;20034;-87
2024/03/09 10:11:32;;;;;;;4.15;2.22;;;;;;;;;;6095739;23;20037;-89
2024/03/09 10:14:07;;;;;;;4.10;2.55;;;;;;;;;;6092651;23;20528;-87
2024/03/09 10:16:39;;;;;;;3.17;2.30;;;;;;;;;;6094052;23;20018;-87
2024/03/09 10:19:16;;;;;;;2.35;1.95;;;;;;;;;;6089594;23;20085;-87
2024/03/09 10:21:45;;;;;;;5.90;1.77;;;;;;;;;;6089191;23;20246;-87
2024/03/09 10:24:19;;;;;;;3.22;2.08;;;;;;;;;;6089504;23;20037;-88
2024/03/09 10:26:46;;;;;;;3.35;1.90;;;;;;;;;;6090105;23;20026;-87
2024/03/09 10:29:21;;;;;;;4.57;2.05;;;;;;;;;;6090120;23;20034;-87
2024/03/09 10:31:50;;;;;;;3.67;2.50;;;;;;;;;;6087289;23;20026;-88
2024/03/09 10:34:25;;;;;;;2.88;1.83;;;;;;;;;;6089359;23;20033;-87
2024/03/09 10:36:52;;;;;;;3.28;2.30;;;;;;;;;;6090901;23;20456;-87
2024/03/09 10:39:39;;;;;;;6.03;2.20;;;;;;;;;;6088568;23;20030;-87
2024/03/09 10:42:15;;;;;;;4.32;2.30;;;;;;;;;;6060794;23;20464;-87
2024/03/09 10:44:52;;;;;;;5.05;2.45;;;;;;;;;;6060854;23;20033;-88
2024/03/09 10:47:24;;;;;;;4.13;2.05;;;;;;;;;;6036881;23;20086;-88
2024/03/09 10:50:02;;;;;;;3.85;2.22;;;;;;;;;;6039497;23;20464;-88
2024/03/09 10:52:37;;;;;;;3.75;2.25;;;;;;;;;;6037761;23;20086;-89
2024/03/09 10:55:10;;;;;;;4.05;2.40;;;;;;;;;;6063063;23;20057;-89
2024/03/09 10:57:44;;;;;;;4.05;2.38;;;;;;;;;;6036593;23;20031;-87
2024/03/09 11:00:15;;;;;;;3.67;2.08;;;;;;;;;;6036610;23;20019;-87
2024/03/09 11:02:50;;;;;;;2.88;2.22;;;;;;;;;;6061079;23;20401;-88
2024/03/09 11:05:22;;;;;;;5.88;2.58;;;;;;;;;;6037580;23;20034;-87
2024/03/09 11:07:56;;;;;;;3.58;2.28;;;;;;;;;;6061433;23;20106;-89
2024/03/09 11:10:25;;;;;;;4.82;2.30;;;;;;;;;;6037067;23;20023;-89
2024/03/09 11:12:53;;;;;;;1.92;1.60;;;;;;;;;;6035302;23;20025;-88
2024/03/09 11:15:31;;;;;;;4.72;2.97;;;;;;;;;;6038364;23;20412;-87
2024/03/09 11:18:15;;;;;;;4.20;3.00;;;;;;;;;;6062033;23;20038;-88
2024/03/09 11:20:49;;;;;;;4.13;2.63;;;;;;;;;;6037988;23;20031;-88
2024/03/09 11:23:23;;;;;;;8.18;3.22;;;;;;;;;;6038326;23;20033;-88
2024/03/09 11:25:51;;;;;;;4.82;3.03;;;;;;;;;;6035850;23;20054;-88
2024/03/09 11:28:22;;;;;;;4.05;2.65;;;;;;;;;;6037332;23;20463;-88
2024/03/09 11:31:14;;;;;;;4.80;2.65;;;;;;;;;;6038042;23;20050;-88
2024/03/09 11:33:48;;;;;;;5.32;3.05;;;;;;;;;;6062296;23;20018;-88
2024/03/09 11:36:38;;;;;;;3.88;2.80;;;;;;;;;;6062284;23;20030;-87
2024/03/09 11:39:13;;;;;;;5.88;3.70;;;;;;;;;;6038131;23;20197;-88
2024/03/09 11:41:48;;;;;;;4.72;3.20;;;;;;;;;;6083214;23;20536;-88
2024/03/09 11:44:24;;;;;;;3.78;2.47;;;;;;;;;;6091582;23;20429;-88
2024/03/09 11:46:51;;;;;;;5.63;2.65;;;;;;;;;;6089304;23;20101;-87
2024/03/09 11:49:22;;;;;;;;;;;;;;;;;;6091223;23;20018;-88
2024/03/09 11:51:58;;;;;;;4.82;3.10;;;;;;;;;;6089268;23;20300;-88
2024/03/09 11:54:27;;;;;;;4.47;2.70;;;;;;;;;;6088735;23;20022;-88
2024/03/09 11:56:56;;;;;;;5.03;3.00;;;;;;;;;;6090715;23;20026;-88
2024/03/09 11:59:30;;;;;;;6.00;3.33;;;;;;;;;;6090144;23;20369;-88
2024/03/09 12:01:58;;;;;;;4.25;2.90;;;;;;;;;;6091120;23;20034;-88
2024/03/09 12:04:33;;;;;;;5.47;3.20;;;;;;;;;;6091646;23;20026;-88
2024/03/09 12:07:01;;;;;;;2.42;1.85;;;;;;;;;;6095656;23;20046;-89
2024/03/09 12:09:37;;;;;;;3.85;2.67;;;;;;;;;;6093543;23;20085;-88
2024/03/09 12:12:12;;;;;;;4.40;2.15;;;;;;;;;;6086758;23;20050;-88
2024/03/09 12:14:53;;;;;;;4.93;3.10;;;;;;;;;;6088460;23;20038;-88
2024/03/09 12:17:22;;;;;;;4.75;2.90;;;;;;;;;;6087408;23;20023;-88
2024/03/09 12:19:55;;;;;;;5.80;3.47;;;;;;;;;;6090414;23;20032;-88
2024/03/09 12:22:23;;;;;;;5.82;3.20;;;;;;;;;;6089280;23;20030;-87
2024/03/09 12:24:50;;;;;;;4.68;3.03;;;;;;;;;;6090738;23;20372;-88
2024/03/09 12:27:24;;;;;;;7.03;3.55;;;;;;;;;;6088757;23;20027;-89
2024/03/09 12:29:53;;;;;;;;;;;;;;;;;;6087960;23;20026;-88
2024/03/09 12:32:28;;;;;;;4.63;3.30;;;;;;;;;;6089952;23;19928;-87
2024/03/09 12:35:01;;;;;;;5.30;3.75;;;;;;;;;;6092368;23;20030;-88
2024/03/09 12:37:35;;;;;;;5.20;3.60;;;;;;;;;;6092936;23;20041;-89
2024/03/09 12:40:20;;;;;;;5.32;3.65;;;;;;;;;;6091181;23;20029;-87
2024/03/09 12:42:54;;;;;;;7.88;3.90;;;;;;;;;;6092347;23;20024;-89
2024/03/09 12:45:28;;;;;;;6.75;3.92;;;;;;;;;;6091929;23;20062;-88
2024/03/09 12:47:56;;;;;;;5.38;3.78;;;;;;;;;;6092458;23;20086;-90
2024/03/09 12:50:25;;;;;;;6.10;3.00;;;;;;;;;;6093398;23;20041;-90
2024/03/09 12:53:00;;;;;;;6.28;4.07;;;;;;;;;;6093153;23;20342;-89
2024/03/09 12:55:30;;;;;;;5.72;3.08;;;;;;;;;;6092409;23;20026;-88
2024/03/09 12:57:59;;;;;;;6.90;3.85;;;;;;;;;;6094409;23;20030;-89
2024/03/09 13:00:33;;;;;;;7.10;3.65;;;;;;;;;;6093226;23;20061;-87
2024/03/09 13:03:04;;;;;;;5.15;4.10;;;;;;;;;;6094782;23;20057;-90
2024/03/09 13:05:38;;;;;;;6.70;4.22;;;;;;;;;;6092953;23;20019;-88
2024/03/09 13:08:07;;;;;;;5.47;3.63;;;;;;;;;;6091839;23;20026;-89
2024/03/09 13:10:45;;;;;;;6.07;3.63;;;;;;;;;;6091685;23;20018;-89
2024/03/09 13:13:14;;;;;;;5.60;3.97;;;;;;;;;;6093178;23;20022;-88
2024/03/09 13:15:52;;;;;;;6.30;4.00;;;;;;;;;;6090823;23;20026;-87
2024/03/09 13:18:23;;;;;;;5.72;3.63;;;;;;;;;;6090390;23;20365;-88
2024/03/09 13:20:57;;;;;;;10.00;4.13;;;;;;;;;;6093190;23;20037;-88
2024/03/09 13:23:29;;;;;;;5.05;3.45;;;;;;;;;;6092893;23;20090;-88
2024/03/09 13:26:12;;;;;;;5.50;3.22;;;;;;;;;;6093190;23;20106;-88
2024/03/09 13:28:51;;;;;;;4.72;3.65;;;;;;;;;;6091278;23;20081;-87
2024/03/09 13:31:18;;;;;;;7.25;3.83;;;;;;;;;;6090992;23;20033;-88
2024/03/09 13:33:54;;;;;;;4.38;2.63;;;;;;;;;;6092450;23;20031;-86
2024/03/09 13:36:25;;;;;;;6.03;3.67;;;;;;;;;;6092743;23;20078;-88
2024/03/09 13:38:53;;;;;;;7.82;3.35;;;;;;;;;;6093503;23;20468;-88
2024/03/09 13:41:34;;;;;;;5.43;2.90;;;;;;;;;;6093963;23;20026;-88
2024/03/09 13:44:02;;;;;;;7.38;3.63;;;;;;;;;;6091121;23;20037;-89
2024/03/09 13:46:36;;;;;;;6.65;3.50;;;;;;;;;;6091749;23;20026;-88
2024/03/09 13:49:14;;;;;;;4.82;2.10;;;;;;;;;;6089726;23;20090;-89
2024/03/09 13:51:48;;;;;;;4.28;3.03;;;;;;;;;;6089516;23;20350;-89
2024/03/09 13:54:17;;;;;;;5.50;3.58;;;;;;;;;;6090318;23;20056;-88
2024/03/09 13:56:46;;;;;;;4.85;3.72;;;;;;;;;;6090787;23;20018;-90
2024/03/09 13:59:21;;;;;;;5.25;3.20;;;;;;;;;;6085185;23;20074;-88
2024/03/09 14:01:49;;;;;;;4.88;3.33;;;;;;;;;;6086325;23;20089;-87
2024/03/09 14:04:23;;;;;;;5.30;3.22;;;;;;;;;;6089159;23;20089;-89
2024/03/09 14:06:52;;;;;;;11.70;4.05;;;;;;;;;;6091777;23;20022;-87
2024/03/09 14:09:39;;;;;;;9.35;3.53;;;;;;;;;;6093393;23;20030;-88
2024/03/09 14:12:15;;;;;;;6.72;3.72;;;;;;;;;;6094991;23;20019;-87
2024/03/09 14:14:43;;;;;;;5.30;3.72;;;;;;;;;;6092645;23;20022;-88
2024/03/09 14:17:18;;;;;;;5.28;3.35;;;;;;;;;;6091906;23;20026;-89
2024/03/09 14:19:47;;;;;;;5.57;3.55;;;;;;;;;;6090729;23;20058;-88
2024/03/09 14:22:15;;;;;;;5.25;3.13;;;;;;;;;;6089354;23;20026;-87
2024/03/09 14:24:58;;;;;;;5.80;3.72;;;;;;;;;;6089905;23;20064;-88
2024/03/09 14:27:29;;;;;;;9.90;4.32;;;;;;;;;;6091513;23;20046;-88
2024/03/09 14:30:08;;;;;;;6.70;4.07;;;;;;;;;;6091778;23;20077;-89
2024/03/09 14:32:39;;;;;;;6.03;4.10;;;;;;;;;;6092340;23;20392;-88
2024/03/09 14:35:14;;;;;;;4.55;3.67;;;;;;;;;;6089839;23;20030;-88
2024/03/09 14:37:48;;;;;;;5.93;4.28;;;;;;;;;;6091761;23;20014;-88
2024/03/09 14:40:36;;;;;;;6.60;4.25;;;;;;;;;;6089695;23;20480;-89
2024/03/09 14:43:12;;;;;;;7.55;4.03;;;;;;;;;;6092573;23;20024;-88
2024/03/09 14:45:48;;;;;;;4.75;3.78;;;;;;;;;;6090606;23;20022;-89
2024/03/09 14:48:15;;;;;;;5.90;3.90;;;;;;;;;;6091461;23;20444;-89
2024/03/09 14:50:43;;;;;;;7.50;4.47;;;;;;;;;;6089429;23;20467;-86
2024/03/09 14:53:17;;;;;;;6.30;3.70;;;;;;;;;;6089384;23;20476;-85
2024/03/09 14:55:49;;;;;;;8.57;3.88;;;;;;;;;;6089792;23;20030;-85
2024/03/09 14:58:16;;;;;;;12.30;4.28;;;;;;;;;;6090397;23;20022;-86
2024/03/09 15:00:54;;;;;;;5.47;3.30;;;;;;;;;;6089575;23;20102;-85
2024/03/09 15:05:56;;;;;;;9.20;4.22;;;;;;;;;;6090034;23;20031;-85
2024/03/09 15:08:23;;;;;;;6.55;3.53;;;;;;;;;;6089506;23;20479;-85
2024/03/09 15:10:57;;;;;;;8.48;3.80;;;;;;;;;;6089155;23;20029;-85